sensor_id;sensor_type;location;lat;lon;timestamp;P1;durP1;ratioP1;P2;durP2;ratioP2
15094;SDS011;7648;52.264;9.632;2024-03-02T00:02:23;10.43;;;9.33;;
15094;SDS011;7648;52.264;9.632;2024-03-02T00:06:25;8.27;;;7.47;;
15094;SDS011;7648;52.264;9.632;2024-03-02T00:10:29;9.33;;;7.87;;
15094;SDS011;7648;52.264;9.632;2024-03-02T00:14:41;9.27;;;8.40;;
15094;SDS011;7648;52.264;9.632;2024-03-02T00:18:43;9.20;;;8.30;;
15094;SDS011;7648;52.264;9.632;2024-03-02T00:22:45;9.73;;;8.73;;
15094;SDS011;7648;52.264;9.632;2024-03-02T00:26:47;11.73;;;9.53;;
15094;SDS011;7648;52.264;9.632;2024-03-02T00:30:56;10.47;;;9.30;;
15094;SDS011;7648;52.264;9.632;2024-03-02T00:34:59;13.07;;;11.77;;
15094;SDS011;7648;52.264;9.632;2024-03-02T00:39:01;11.10;;;9.93;;
15094;SDS011;7648;52.264;9.632;2024-03-02T00:43:10;10.63;;;9.63;;
15094;SDS011;7648;52.264;9.632;2024-03-02T00:47:40;11.50;;;10.30;;
15094;SDS011;7648;52.264;9.632;2024-03-02T00:51:44;12.03;;;10.10;;
15094;SDS011;7648;52.264;9.632;2024-03-02T00:55:48;14.00;;;10.90;;
15094;SDS011;7648;52.264;9.632;2024-03-02T00:59:50;11.17;;;9.77;;
15094;SDS011;7648;52.264;9.632;2024-03-02T01:03:54;13.23;;;10.73;;
15094;SDS011;7648;52.264;9.632;2024-03-02T01:07:56;11.57;;;10.30;;
15094;SDS011;7648;52.264;9.632;2024-03-02T01:11:58;13.23;;;10.30;;
15094;SDS011;7648;52.264;9.632;2024-03-02T01:16:00;14.40;;;10.77;;
15094;SDS011;7648;52.264;9.632;2024-03-02T01:20:04;11.53;;;10.10;;
15094;SDS011;7648;52.264;9.632;2024-03-02T01:24:09;11.50;;;10.07;;
15094;SDS011;7648;52.264;9.632;2024-03-02T01:28:11;13.03;;;10.23;;
15094;SDS011;7648;52.264;9.632;2024-03-02T01:32:13;11.10;;;9.60;;
15094;SDS011;7648;52.264;9.632;2024-03-02T01:36:17;11.17;;;10.00;;
15094;SDS011;7648;52.264;9.632;2024-03-02T01:40:19;15.03;;;10.23;;
15094;SDS011;7648;52.264;9.632;2024-03-02T01:44:21;13.27;;;11.10;;
15094;SDS011;7648;52.264;9.632;2024-03-02T01:48:23;15.83;;;12.03;;
15094;SDS011;7648;52.264;9.632;2024-03-02T01:52:26;12.77;;;11.30;;
15094;SDS011;7648;52.264;9.632;2024-03-02T01:56:29;16.30;;;12.33;;
15094;SDS011;7648;52.264;9.632;2024-03-02T02:00:31;14.73;;;10.93;;
15094;SDS011;7648;52.264;9.632;2024-03-02T02:04:33;17.03;;;13.00;;
15094;SDS011;7648;52.264;9.632;2024-03-02T02:08:37;17.23;;;13.63;;
15094;SDS011;7648;52.264;9.632;2024-03-02T02:12:39;18.33;;;13.83;;
15094;SDS011;7648;52.264;9.632;2024-03-02T02:16:41;16.80;;;13.17;;
15094;SDS011;7648;52.264;9.632;2024-03-02T02:20:43;18.73;;;14.67;;
15094;SDS011;7648;52.264;9.632;2024-03-02T02:24:47;19.03;;;13.77;;
15094;SDS011;7648;52.264;9.632;2024-03-02T02:28:48;18.40;;;13.47;;
15094;SDS011;7648;52.264;9.632;2024-03-02T02:32:50;22.07;;;13.87;;
15094;SDS011;7648;52.264;9.632;2024-03-02T02:36:52;16.87;;;13.10;;
15094;SDS011;7648;52.264;9.632;2024-03-02T02:40:56;18.47;;;13.90;;
15094;SDS011;7648;52.264;9.632;2024-03-02T02:44:58;20.10;;;14.90;;
15094;SDS011;7648;52.264;9.632;2024-03-02T02:49:00;21.53;;;14.83;;
15094;SDS011;7648;52.264;9.632;2024-03-02T02:53:02;21.30;;;15.20;;
15094;SDS011;7648;52.264;9.632;2024-03-02T02:57:05;18.40;;;12.80;;
15094;SDS011;7648;52.264;9.632;2024-03-02T03:01:07;20.10;;;14.77;;
15094;SDS011;7648;52.264;9.632;2024-03-02T03:05:10;20.07;;;14.07;;
15094;SDS011;7648;52.264;9.632;2024-03-02T03:09:12;21.67;;;14.77;;
15094;SDS011;7648;52.264;9.632;2024-03-02T03:13:16;19.63;;;13.90;;
15094;SDS011;7648;52.264;9.632;2024-03-02T03:17:17;20.70;;;14.43;;
15094;SDS011;7648;52.264;9.632;2024-03-02T03:21:19;20.50;;;14.00;;
15094;SDS011;7648;52.264;9.632;2024-03-02T03:25:21;24.00;;;15.77;;
15094;SDS011;7648;52.264;9.632;2024-03-02T03:29:25;20.07;;;14.40;;
15094;SDS011;7648;52.264;9.632;2024-03-02T03:33:26;19.40;;;14.20;;
15094;SDS011;7648;52.264;9.632;2024-03-02T03:37:28;22.20;;;13.77;;
15094;SDS011;7648;52.264;9.632;2024-03-02T03:41:32;24.93;;;15.07;;
15094;SDS011;7648;52.264;9.632;2024-03-02T03:45:36;22.47;;;16.30;;
15094;SDS011;7648;52.264;9.632;2024-03-02T03:49:38;21.77;;;15.70;;
15094;SDS011;7648;52.264;9.632;2024-03-02T03:53:40;20.80;;;14.50;;
15094;SDS011;7648;52.264;9.632;2024-03-02T03:57:41;18.73;;;13.63;;
15094;SDS011;7648;52.264;9.632;2024-03-02T04:01:45;22.83;;;14.50;;
15094;SDS011;7648;52.264;9.632;2024-03-02T04:05:47;17.00;;;13.10;;
15094;SDS011;7648;52.264;9.632;2024-03-02T04:09:49;18.30;;;13.07;;
15094;SDS011;7648;52.264;9.632;2024-03-02T04:13:51;20.20;;;14.17;;
15094;SDS011;7648;52.264;9.632;2024-03-02T04:17:54;20.80;;;13.63;;
15094;SDS011;7648;52.264;9.632;2024-03-02T04:21:56;20.53;;;13.43;;
15094;SDS011;7648;52.264;9.632;2024-03-02T04:25:58;16.03;;;12.43;;
15094;SDS011;7648;52.264;9.632;2024-03-02T04:30:00;19.40;;;13.37;;
15094;SDS011;7648;52.264;9.632;2024-03-02T04:34:03;23.13;;;14.30;;
15094;SDS011;7648;52.264;9.632;2024-03-02T04:38:05;21.73;;;14.57;;
15094;SDS011;7648;52.264;9.632;2024-03-02T04:42:07;22.40;;;15.03;;
15094;SDS011;7648;52.264;9.632;2024-03-02T04:46:09;19.73;;;13.87;;
15094;SDS011;7648;52.264;9.632;2024-03-02T04:50:13;20.47;;;14.00;;
15094;SDS011;7648;52.264;9.632;2024-03-02T04:54:15;20.40;;;14.13;;
15094;SDS011;7648;52.264;9.632;2024-03-02T04:58:17;21.80;;;14.27;;
15094;SDS011;7648;52.264;9.632;2024-03-02T05:02:18;22.57;;;14.17;;
15094;SDS011;7648;52.264;9.632;2024-03-02T05:06:22;23.23;;;15.13;;
15094;SDS011;7648;52.264;9.632;2024-03-02T05:10:24;25.33;;;16.07;;
15094;SDS011;7648;52.264;9.632;2024-03-02T05:14:26;25.60;;;16.17;;
15094;SDS011;7648;52.264;9.632;2024-03-02T05:18:28;25.37;;;16.20;;
15094;SDS011;7648;52.264;9.632;2024-03-02T05:22:31;26.63;;;16.77;;
15094;SDS011;7648;52.264;9.632;2024-03-02T05:26:34;28.03;;;16.57;;
15094;SDS011;7648;52.264;9.632;2024-03-02T05:30:36;28.60;;;17.13;;
15094;SDS011;7648;52.264;9.632;2024-03-02T05:34:37;27.63;;;16.43;;
15094;SDS011;7648;52.264;9.632;2024-03-02T05:38:41;29.30;;;17.77;;
15094;SDS011;7648;52.264;9.632;2024-03-02T05:42:43;24.33;;;16.10;;
15094;SDS011;7648;52.264;9.632;2024-03-02T05:46:45;26.87;;;16.80;;
15094;SDS011;7648;52.264;9.632;2024-03-02T05:50:47;27.13;;;16.70;;
15094;SDS011;7648;52.264;9.632;2024-03-02T05:54:50;27.83;;;16.87;;
15094;SDS011;7648;52.264;9.632;2024-03-02T05:58:52;27.93;;;16.87;;
15094;SDS011;7648;52.264;9.632;2024-03-02T06:03:07;23.30;;;15.23;;
15094;SDS011;7648;52.264;9.632;2024-03-02T06:07:09;23.97;;;15.00;;
15094;SDS011;7648;52.264;9.632;2024-03-02T06:11:12;24.47;;;16.40;;
15094;SDS011;7648;52.264;9.632;2024-03-02T06:15:14;25.57;;;16.27;;
15094;SDS011;7648;52.264;9.632;2024-03-02T06:19:17;24.53;;;15.17;;
15094;SDS011;7648;52.264;9.632;2024-03-02T06:23:19;26.63;;;17.43;;
15094;SDS011;7648;52.264;9.632;2024-03-02T06:27:22;29.43;;;16.87;;
15094;SDS011;7648;52.264;9.632;2024-03-02T06:31:23;28.93;;;17.33;;
15094;SDS011;7648;52.264;9.632;2024-03-02T06:35:25;26.20;;;16.53;;
15094;SDS011;7648;52.264;9.632;2024-03-02T06:39:27;29.17;;;16.30;;
15094;SDS011;7648;52.264;9.632;2024-03-02T06:43:30;26.90;;;17.37;;
15094;SDS011;7648;52.264;9.632;2024-03-02T06:47:32;26.10;;;16.33;;
15094;SDS011;7648;52.264;9.632;2024-03-02T06:51:34;27.10;;;16.93;;
15094;SDS011;7648;52.264;9.632;2024-03-02T06:55:36;28.67;;;16.57;;
15094;SDS011;7648;52.264;9.632;2024-03-02T06:59:39;25.53;;;16.47;;
15094;SDS011;7648;52.264;9.632;2024-03-02T07:03:41;27.57;;;16.13;;
15094;SDS011;7648;52.264;9.632;2024-03-02T07:07:44;22.80;;;14.70;;
15094;SDS011;7648;52.264;9.632;2024-03-02T07:11:46;24.33;;;16.07;;
15094;SDS011;7648;52.264;9.632;2024-03-02T07:15:49;25.03;;;15.90;;
15094;SDS011;7648;52.264;9.632;2024-03-02T07:20:15;24.20;;;15.80;;
15094;SDS011;7648;52.264;9.632;2024-03-02T07:24:17;24.07;;;16.43;;
15094;SDS011;7648;52.264;9.632;2024-03-02T07:28:19;21.70;;;16.63;;
15094;SDS011;7648;52.264;9.632;2024-03-02T07:32:23;25.30;;;15.80;;
15094;SDS011;7648;52.264;9.632;2024-03-02T07:36:25;23.33;;;16.70;;
15094;SDS011;7648;52.264;9.632;2024-03-02T07:40:27;25.40;;;16.20;;
15094;SDS011;7648;52.264;9.632;2024-03-02T07:44:29;28.63;;;17.63;;
15094;SDS011;7648;52.264;9.632;2024-03-02T07:48:32;21.73;;;16.10;;
15094;SDS011;7648;52.264;9.632;2024-03-02T07:52:34;24.87;;;16.67;;
15094;SDS011;7648;52.264;9.632;2024-03-02T07:56:36;26.13;;;17.20;;
15094;SDS011;7648;52.264;9.632;2024-03-02T08:00:38;22.83;;;15.83;;
15094;SDS011;7648;52.264;9.632;2024-03-02T08:04:41;22.10;;;15.77;;
15094;SDS011;7648;52.264;9.632;2024-03-02T08:08:44;24.50;;;15.30;;
15094;SDS011;7648;52.264;9.632;2024-03-02T08:12:45;22.43;;;16.73;;
15094;SDS011;7648;52.264;9.632;2024-03-02T08:16:47;25.27;;;16.37;;
15094;SDS011;7648;52.264;9.632;2024-03-02T08:20:51;23.83;;;16.07;;
15094;SDS011;7648;52.264;9.632;2024-03-02T08:24:53;22.00;;;15.33;;
15094;SDS011;7648;52.264;9.632;2024-03-02T08:28:55;22.70;;;16.90;;
15094;SDS011;7648;52.264;9.632;2024-03-02T08:32:57;22.63;;;15.47;;
15094;SDS011;7648;52.264;9.632;2024-03-02T08:37:00;20.77;;;14.67;;
15094;SDS011;7648;52.264;9.632;2024-03-02T08:41:03;21.37;;;14.87;;
15094;SDS011;7648;52.264;9.632;2024-03-02T08:45:06;19.23;;;13.53;;
15094;SDS011;7648;52.264;9.632;2024-03-02T08:49:10;19.53;;;14.10;;
15094;SDS011;7648;52.264;9.632;2024-03-02T08:53:13;23.00;;;15.60;;
15094;SDS011;7648;52.264;9.632;2024-03-02T08:57:18;20.77;;;14.73;;
15094;SDS011;7648;52.264;9.632;2024-03-02T09:01:20;20.70;;;13.63;;
15094;SDS011;7648;52.264;9.632;2024-03-02T09:05:22;21.43;;;14.20;;
15094;SDS011;7648;52.264;9.632;2024-03-02T09:09:25;16.90;;;13.63;;
15094;SDS011;7648;52.264;9.632;2024-03-02T09:13:28;18.83;;;14.10;;
15094;SDS011;7648;52.264;9.632;2024-03-02T09:17:34;19.33;;;13.87;;
15094;SDS011;7648;52.264;9.632;2024-03-02T09:21:36;16.10;;;13.40;;
15094;SDS011;7648;52.264;9.632;2024-03-02T09:25:39;20.93;;;14.17;;
15094;SDS011;7648;52.264;9.632;2024-03-02T09:29:42;17.43;;;13.37;;
15094;SDS011;7648;52.264;9.632;2024-03-02T09:33:45;18.27;;;13.27;;
15094;SDS011;7648;52.264;9.632;2024-03-02T09:37:47;18.93;;;12.83;;
15094;SDS011;7648;52.264;9.632;2024-03-02T09:41:50;16.60;;;11.73;;
15094;SDS011;7648;52.264;9.632;2024-03-02T09:45:52;17.30;;;13.80;;
15094;SDS011;7648;52.264;9.632;2024-03-02T09:49:55;23.50;;;13.03;;
15094;SDS011;7648;52.264;9.632;2024-03-02T09:53:57;21.03;;;13.10;;
15094;SDS011;7648;52.264;9.632;2024-03-02T09:58:03;14.47;;;11.67;;
15094;SDS011;7648;52.264;9.632;2024-03-02T10:02:05;15.37;;;12.37;;
15094;SDS011;7648;52.264;9.632;2024-03-02T10:06:21;15.97;;;11.27;;
15094;SDS011;7648;52.264;9.632;2024-03-02T10:10:23;15.30;;;11.03;;
15094;SDS011;7648;52.264;9.632;2024-03-02T10:14:29;13.77;;;10.97;;
15094;SDS011;7648;52.264;9.632;2024-03-02T10:18:31;14.60;;;11.00;;
15094;SDS011;7648;52.264;9.632;2024-03-02T10:22:34;13.57;;;10.57;;
15094;SDS011;7648;52.264;9.632;2024-03-02T10:26:35;13.23;;;10.27;;
15094;SDS011;7648;52.264;9.632;2024-03-02T10:30:39;17.43;;;11.17;;
15094;SDS011;7648;52.264;9.632;2024-03-02T10:34:41;12.87;;;10.53;;
15094;SDS011;7648;52.264;9.632;2024-03-02T10:38:44;12.90;;;11.37;;
15094;SDS011;7648;52.264;9.632;2024-03-02T10:42:47;17.07;;;11.93;;
15094;SDS011;7648;52.264;9.632;2024-03-02T10:46:52;14.83;;;11.13;;
15094;SDS011;7648;52.264;9.632;2024-03-02T10:50:55;12.90;;;10.47;;
15094;SDS011;7648;52.264;9.632;2024-03-02T10:54:59;13.40;;;9.87;;
15094;SDS011;7648;52.264;9.632;2024-03-02T10:59:02;10.63;;;9.53;;
15094;SDS011;7648;52.264;9.632;2024-03-02T11:03:06;10.77;;;8.77;;
15094;SDS011;7648;52.264;9.632;2024-03-02T11:07:10;12.80;;;9.50;;
15094;SDS011;7648;52.264;9.632;2024-03-02T11:11:13;13.10;;;9.87;;
15094;SDS011;7648;52.264;9.632;2024-03-02T11:15:20;10.50;;;9.17;;
15094;SDS011;7648;52.264;9.632;2024-03-02T11:19:27;11.47;;;9.50;;
15094;SDS011;7648;52.264;9.632;2024-03-02T11:23:33;10.17;;;8.33;;
15094;SDS011;7648;52.264;9.632;2024-03-02T11:32:03;10.83;;;9.10;;
15094;SDS011;7648;52.264;9.632;2024-03-02T11:36:08;14.13;;;9.53;;
15094;SDS011;7648;52.264;9.632;2024-03-02T11:40:10;11.13;;;8.63;;
15094;SDS011;7648;52.264;9.632;2024-03-02T11:44:12;12.60;;;10.53;;
15094;SDS011;7648;52.264;9.632;2024-03-02T11:48:17;14.17;;;9.83;;
15094;SDS011;7648;52.264;9.632;2024-03-02T11:52:22;13.40;;;11.03;;
15094;SDS011;7648;52.264;9.632;2024-03-02T11:56:27;10.13;;;8.90;;
15094;SDS011;7648;52.264;9.632;2024-03-02T12:00:31;10.77;;;8.37;;
15094;SDS011;7648;52.264;9.632;2024-03-02T12:04:33;9.63;;;8.73;;
15094;SDS011;7648;52.264;9.632;2024-03-02T12:08:37;7.87;;;7.17;;
15094;SDS011;7648;52.264;9.632;2024-03-02T12:12:39;8.83;;;7.93;;
15094;SDS011;7648;52.264;9.632;2024-03-02T12:16:43;10.23;;;8.03;;
15094;SDS011;7648;52.264;9.632;2024-03-02T12:20:45;10.03;;;7.83;;
15094;SDS011;7648;52.264;9.632;2024-03-02T12:24:51;12.07;;;8.67;;
15094;SDS011;7648;52.264;9.632;2024-03-02T12:28:53;7.63;;;6.90;;
15094;SDS011;7648;52.264;9.632;2024-03-02T12:32:55;8.37;;;7.57;;
15094;SDS011;7648;52.264;9.632;2024-03-02T12:36:57;9.57;;;7.10;;
15094;SDS011;7648;52.264;9.632;2024-03-02T12:41:01;7.20;;;6.53;;
15094;SDS011;7648;52.264;9.632;2024-03-02T12:45:03;7.67;;;6.87;;
15094;SDS011;7648;52.264;9.632;2024-03-02T12:49:07;7.60;;;6.80;;
15094;SDS011;7648;52.264;9.632;2024-03-02T12:53:14;7.37;;;6.67;;
15094;SDS011;7648;52.264;9.632;2024-03-02T12:57:18;8.67;;;6.90;;
15094;SDS011;7648;52.264;9.632;2024-03-02T13:01:20;7.57;;;6.70;;
15094;SDS011;7648;52.264;9.632;2024-03-02T13:05:22;7.40;;;6.70;;
15094;SDS011;7648;52.264;9.632;2024-03-02T13:09:26;8.17;;;6.10;;
15094;SDS011;7648;52.264;9.632;2024-03-02T13:13:31;10.53;;;7.67;;
15094;SDS011;7648;52.264;9.632;2024-03-02T13:17:34;8.73;;;6.57;;
15094;SDS011;7648;52.264;9.632;2024-03-02T13:21:37;7.30;;;6.60;;
15094;SDS011;7648;52.264;9.632;2024-03-02T13:25:39;8.27;;;6.33;;
15094;SDS011;7648;52.264;9.632;2024-03-02T13:29:42;6.97;;;6.30;;
15094;SDS011;7648;52.264;9.632;2024-03-02T13:33:44;7.13;;;6.40;;
15094;SDS011;7648;52.264;9.632;2024-03-02T13:37:46;6.93;;;6.33;;
15094;SDS011;7648;52.264;9.632;2024-03-02T13:41:50;6.00;;;5.40;;
15094;SDS011;7648;52.264;9.632;2024-03-02T13:45:59;7.13;;;5.83;;
15094;SDS011;7648;52.264;9.632;2024-03-02T13:50:01;5.47;;;4.87;;
15094;SDS011;7648;52.264;9.632;2024-03-02T13:54:04;6.80;;;6.20;;
15094;SDS011;7648;52.264;9.632;2024-03-02T13:58:06;5.47;;;4.80;;
15094;SDS011;7648;52.264;9.632;2024-03-02T14:02:10;5.17;;;4.77;;
15094;SDS011;7648;52.264;9.632;2024-03-02T14:06:13;6.57;;;5.87;;
15094;SDS011;7648;52.264;9.632;2024-03-02T14:10:15;5.97;;;5.43;;
15094;SDS011;7648;52.264;9.632;2024-03-02T14:14:18;6.07;;;5.40;;
15094;SDS011;7648;52.264;9.632;2024-03-02T14:18:21;7.07;;;5.63;;
15094;SDS011;7648;52.264;9.632;2024-03-02T14:22:23;6.27;;;5.47;;
15094;SDS011;7648;52.264;9.632;2024-03-02T14:26:25;6.00;;;5.10;;
15094;SDS011;7648;52.264;9.632;2024-03-02T14:30:28;5.27;;;4.77;;
15094;SDS011;7648;52.264;9.632;2024-03-02T14:34:31;4.93;;;4.43;;
15094;SDS011;7648;52.264;9.632;2024-03-02T14:38:33;6.40;;;4.43;;
15094;SDS011;7648;52.264;9.632;2024-03-02T14:42:35;5.73;;;5.13;;
15094;SDS011;7648;52.264;9.632;2024-03-02T14:46:37;4.73;;;4.17;;
15094;SDS011;7648;52.264;9.632;2024-03-02T14:50:41;4.37;;;4.07;;
15094;SDS011;7648;52.264;9.632;2024-03-02T14:54:43;4.47;;;4.07;;
15094;SDS011;7648;52.264;9.632;2024-03-02T14:58:47;4.30;;;3.73;;
15094;SDS011;7648;52.264;9.632;2024-03-02T15:02:49;4.23;;;3.93;;
15094;SDS011;7648;52.264;9.632;2024-03-02T15:06:52;4.53;;;4.17;;
15094;SDS011;7648;52.264;9.632;2024-03-02T15:10:54;3.57;;;3.27;;
15094;SDS011;7648;52.264;9.632;2024-03-02T15:14:57;4.10;;;3.70;;
15094;SDS011;7648;52.264;9.632;2024-03-02T15:18:59;3.80;;;3.53;;
15094;SDS011;7648;52.264;9.632;2024-03-02T15:23:02;4.07;;;3.50;;
15094;SDS011;7648;52.264;9.632;2024-03-02T15:27:05;4.80;;;4.40;;
15094;SDS011;7648;52.264;9.632;2024-03-02T15:31:08;4.83;;;4.43;;
15094;SDS011;7648;52.264;9.632;2024-03-02T15:35:10;5.10;;;4.60;;
15094;SDS011;7648;52.264;9.632;2024-03-02T15:39:13;3.97;;;3.67;;
15094;SDS011;7648;52.264;9.632;2024-03-02T15:43:15;5.20;;;4.40;;
15094;SDS011;7648;52.264;9.632;2024-03-02T15:47:17;5.27;;;4.23;;
15094;SDS011;7648;52.264;9.632;2024-03-02T15:51:19;5.17;;;4.60;;
15094;SDS011;7648;52.264;9.632;2024-03-02T15:55:22;4.70;;;4.30;;
15094;SDS011;7648;52.264;9.632;2024-03-02T15:59:24;5.60;;;5.07;;
15094;SDS011;7648;52.264;9.632;2024-03-02T16:03:26;4.80;;;4.43;;
15094;SDS011;7648;52.264;9.632;2024-03-02T16:07:28;5.43;;;4.93;;
15094;SDS011;7648;52.264;9.632;2024-03-02T16:11:32;6.20;;;5.60;;
15094;SDS011;7648;52.264;9.632;2024-03-02T16:15:36;11.20;;;8.37;;
15094;SDS011;7648;52.264;9.632;2024-03-02T16:19:38;10.00;;;7.80;;
15094;SDS011;7648;52.264;9.632;2024-03-02T16:23:41;11.07;;;9.20;;
15094;SDS011;7648;52.264;9.632;2024-03-02T16:27:44;7.10;;;6.60;;
15094;SDS011;7648;52.264;9.632;2024-03-02T16:31:46;6.70;;;6.10;;
15094;SDS011;7648;52.264;9.632;2024-03-02T16:35:48;14.07;;;7.67;;
15094;SDS011;7648;52.264;9.632;2024-03-02T16:39:50;9.70;;;7.23;;
15094;SDS011;7648;52.264;9.632;2024-03-02T16:43:54;13.47;;;9.53;;
15094;SDS011;7648;52.264;9.632;2024-03-02T16:47:56;9.00;;;7.40;;
15094;SDS011;7648;52.264;9.632;2024-03-02T16:51:58;6.20;;;5.60;;
15094;SDS011;7648;52.264;9.632;2024-03-02T16:56:00;5.00;;;4.60;;
15094;SDS011;7648;52.264;9.632;2024-03-02T17:00:05;9.57;;;6.93;;
15094;SDS011;7648;52.264;9.632;2024-03-02T17:04:08;5.23;;;4.73;;
15094;SDS011;7648;52.264;9.632;2024-03-02T17:08:10;7.00;;;6.40;;
15094;SDS011;7648;52.264;9.632;2024-03-02T17:12:12;7.40;;;6.43;;
15094;SDS011;7648;52.264;9.632;2024-03-02T17:16:15;5.87;;;5.30;;
15094;SDS011;7648;52.264;9.632;2024-03-02T17:20:17;5.53;;;5.03;;
15094;SDS011;7648;52.264;9.632;2024-03-02T17:24:19;7.30;;;5.30;;
15094;SDS011;7648;52.264;9.632;2024-03-02T17:28:21;5.80;;;5.27;;
15094;SDS011;7648;52.264;9.632;2024-03-02T17:32:26;10.37;;;7.83;;
15094;SDS011;7648;52.264;9.632;2024-03-02T17:36:28;12.80;;;10.70;;
15094;SDS011;7648;52.264;9.632;2024-03-02T17:40:30;27.87;;;20.20;;
15094;SDS011;7648;52.264;9.632;2024-03-02T17:44:32;9.97;;;6.70;;
15094;SDS011;7648;52.264;9.632;2024-03-02T17:48:35;10.17;;;5.90;;
15094;SDS011;7648;52.264;9.632;2024-03-02T17:52:37;5.73;;;5.33;;
15094;SDS011;7648;52.264;9.632;2024-03-02T17:56:39;7.23;;;6.60;;
15094;SDS011;7648;52.264;9.632;2024-03-02T18:00:41;21.90;;;14.03;;
15094;SDS011;7648;52.264;9.632;2024-03-02T18:04:45;9.97;;;7.80;;
15094;SDS011;7648;52.264;9.632;2024-03-02T18:08:47;49.83;;;33.57;;
15094;SDS011;7648;52.264;9.632;2024-03-02T18:12:49;46.37;;;29.77;;
15094;SDS011;7648;52.264;9.632;2024-03-02T18:16:51;29.37;;;20.23;;
15094;SDS011;7648;52.264;9.632;2024-03-02T18:20:54;10.50;;;8.53;;
15094;SDS011;7648;52.264;9.632;2024-03-02T18:24:56;25.80;;;20.43;;
15094;SDS011;7648;52.264;9.632;2024-03-02T18:28:58;16.97;;;15.17;;
15094;SDS011;7648;52.264;9.632;2024-03-02T18:33:01;19.67;;;14.63;;
15094;SDS011;7648;52.264;9.632;2024-03-02T18:37:05;23.53;;;18.17;;
15094;SDS011;7648;52.264;9.632;2024-03-02T18:41:07;16.27;;;11.73;;
15094;SDS011;7648;52.264;9.632;2024-03-02T18:45:09;24.70;;;17.97;;
15094;SDS011;7648;52.264;9.632;2024-03-02T18:49:11;15.77;;;11.70;;
15094;SDS011;7648;52.264;9.632;2024-03-02T18:53:14;15.23;;;12.17;;
15094;SDS011;7648;52.264;9.632;2024-03-02T18:57:16;15.17;;;11.57;;
15094;SDS011;7648;52.264;9.632;2024-03-02T19:01:18;11.80;;;9.63;;
15094;SDS011;7648;52.264;9.632;2024-03-02T19:05:20;8.80;;;7.63;;
15094;SDS011;7648;52.264;9.632;2024-03-02T19:09:23;8.93;;;8.10;;
15094;SDS011;7648;52.264;9.632;2024-03-02T19:13:25;12.60;;;9.33;;
15094;SDS011;7648;52.264;9.632;2024-03-02T19:17:27;10.10;;;8.60;;
15094;SDS011;7648;52.264;9.632;2024-03-02T19:21:29;7.83;;;6.90;;
15094;SDS011;7648;52.264;9.632;2024-03-02T19:25:33;6.87;;;6.17;;
15094;SDS011;7648;52.264;9.632;2024-03-02T19:29:35;6.03;;;5.63;;
15094;SDS011;7648;52.264;9.632;2024-03-02T19:33:37;7.27;;;5.23;;
15094;SDS011;7648;52.264;9.632;2024-03-02T19:37:39;5.63;;;5.13;;
15094;SDS011;7648;52.264;9.632;2024-03-02T19:41:42;6.57;;;5.40;;
15094;SDS011;7648;52.264;9.632;2024-03-02T19:45:44;6.10;;;5.50;;
15094;SDS011;7648;52.264;9.632;2024-03-02T19:49:46;5.90;;;5.50;;
15094;SDS011;7648;52.264;9.632;2024-03-02T19:53:48;5.70;;;5.17;;
15094;SDS011;7648;52.264;9.632;2024-03-02T19:57:51;12.63;;;9.63;;
15094;SDS011;7648;52.264;9.632;2024-03-02T20:01:53;20.47;;;16.40;;
15094;SDS011;7648;52.264;9.632;2024-03-02T20:05:55;8.03;;;7.17;;
15094;SDS011;7648;52.264;9.632;2024-03-02T20:09:57;6.50;;;5.87;;
15094;SDS011;7648;52.264;9.632;2024-03-02T20:14:00;7.60;;;6.30;;
15094;SDS011;7648;52.264;9.632;2024-03-02T20:18:02;5.80;;;5.30;;
15094;SDS011;7648;52.264;9.632;2024-03-02T20:22:05;4.97;;;4.53;;
15094;SDS011;7648;52.264;9.632;2024-03-02T20:26:06;4.67;;;4.27;;
15094;SDS011;7648;52.264;9.632;2024-03-02T20:30:11;4.87;;;4.40;;
15094;SDS011;7648;52.264;9.632;2024-03-02T20:34:13;3.90;;;3.60;;
15094;SDS011;7648;52.264;9.632;2024-03-02T20:38:18;4.27;;;3.97;;
15094;SDS011;7648;52.264;9.632;2024-03-02T20:42:19;4.73;;;4.13;;
15094;SDS011;7648;52.264;9.632;2024-03-02T20:46:23;6.83;;;4.60;;
15094;SDS011;7648;52.264;9.632;2024-03-02T20:50:25;7.13;;;5.13;;
15094;SDS011;7648;52.264;9.632;2024-03-02T20:54:26;5.73;;;5.20;;
15094;SDS011;7648;52.264;9.632;2024-03-02T20:58:28;5.87;;;5.37;;
15094;SDS011;7648;52.264;9.632;2024-03-02T21:02:32;5.87;;;5.37;;
15094;SDS011;7648;52.264;9.632;2024-03-02T21:06:34;5.97;;;5.43;;
15094;SDS011;7648;52.264;9.632;2024-03-02T21:10:36;5.77;;;5.27;;
15094;SDS011;7648;52.264;9.632;2024-03-02T21:14:38;5.23;;;4.83;;
15094;SDS011;7648;52.264;9.632;2024-03-02T21:18:42;6.43;;;5.80;;
15094;SDS011;7648;52.264;9.632;2024-03-02T21:22:44;9.23;;;6.57;;
15094;SDS011;7648;52.264;9.632;2024-03-02T21:26:51;9.10;;;7.57;;
15094;SDS011;7648;52.264;9.632;2024-03-02T21:30:52;7.40;;;5.90;;
15094;SDS011;7648;52.264;9.632;2024-03-02T21:34:56;6.10;;;5.50;;
15094;SDS011;7648;52.264;9.632;2024-03-02T21:38:58;6.40;;;5.80;;
15094;SDS011;7648;52.264;9.632;2024-03-02T21:43:00;7.73;;;6.83;;
15094;SDS011;7648;52.264;9.632;2024-03-02T21:47:02;6.07;;;5.57;;
15094;SDS011;7648;52.264;9.632;2024-03-02T21:51:06;6.10;;;5.50;;
15094;SDS011;7648;52.264;9.632;2024-03-02T21:55:09;18.30;;;12.33;;
15094;SDS011;7648;52.264;9.632;2024-03-02T21:59:11;12.60;;;10.23;;
15094;SDS011;7648;52.264;9.632;2024-03-02T22:03:13;8.50;;;6.57;;
15094;SDS011;7648;52.264;9.632;2024-03-02T22:07:16;8.87;;;6.97;;
15094;SDS011;7648;52.264;9.632;2024-03-02T22:11:18;7.13;;;6.33;;
15094;SDS011;7648;52.264;9.632;2024-03-02T22:15:20;6.30;;;5.70;;
15094;SDS011;7648;52.264;9.632;2024-03-02T22:19:22;9.73;;;7.73;;
15094;SDS011;7648;52.264;9.632;2024-03-02T22:23:25;7.70;;;6.50;;
15094;SDS011;7648;52.264;9.632;2024-03-02T22:27:27;8.20;;;7.00;;
15094;SDS011;7648;52.264;9.632;2024-03-02T22:31:29;14.07;;;9.57;;
15094;SDS011;7648;52.264;9.632;2024-03-02T22:35:31;16.47;;;11.10;;
15094;SDS011;7648;52.264;9.632;2024-03-02T22:39:34;12.57;;;8.20;;
15094;SDS011;7648;52.264;9.632;2024-03-02T22:43:36;12.70;;;9.07;;
15094;SDS011;7648;52.264;9.632;2024-03-02T22:47:38;11.30;;;8.87;;
15094;SDS011;7648;52.264;9.632;2024-03-02T22:51:40;9.23;;;7.70;;
15094;SDS011;7648;52.264;9.632;2024-03-02T22:55:44;13.57;;;9.00;;
15094;SDS011;7648;52.264;9.632;2024-03-02T22:59:47;16.83;;;11.67;;
15094;SDS011;7648;52.264;9.632;2024-03-02T23:03:50;10.63;;;9.17;;
15094;SDS011;7648;52.264;9.632;2024-03-02T23:07:52;11.40;;;8.57;;
15094;SDS011;7648;52.264;9.632;2024-03-02T23:11:55;10.60;;;7.53;;
15094;SDS011;7648;52.264;9.632;2024-03-02T23:15:57;14.50;;;9.57;;
15094;SDS011;7648;52.264;9.632;2024-03-02T23:19:59;15.40;;;9.93;;
15094;SDS011;7648;52.264;9.632;2024-03-02T23:24:01;12.60;;;10.03;;
15094;SDS011;7648;52.264;9.632;2024-03-02T23:28:05;14.73;;;10.40;;
15094;SDS011;7648;52.264;9.632;2024-03-02T23:32:07;12.87;;;9.13;;
15094;SDS011;7648;52.264;9.632;2024-03-02T23:36:09;8.50;;;7.37;;
15094;SDS011;7648;52.264;9.632;2024-03-02T23:40:11;15.50;;;10.70;;
15094;SDS011;7648;52.264;9.632;2024-03-02T23:44:37;12.13;;;9.13;;
15094;SDS011;7648;52.264;9.632;2024-03-02T23:48:39;13.03;;;8.47;;
15094;SDS011;7648;52.264;9.632;2024-03-02T23:52:41;9.03;;;7.93;;
15094;SDS011;7648;52.264;9.632;2024-03-02T23:56:43;7.83;;;7.03;;
